Time;durP1;ratioP1;P1;durP2;ratioP2;P2;SDS_P1;SDS_P2;PMS_P1;PMS_P2;Temp;Humidity;BMP_temperature;BMP_pressure;BME280_temperature;BME280_humidity;BME280_pressure;Samples;Min_cycle;Max_cycle;Signal;HPM_P1;HPM_P2
2021/08/14 00:00:22;;;;;;;24.02;7.07;;;;;;;;;;5092849;28;20031;-68
2021/08/14 00:02:49;;;;;;;22.00;5.88;;;;;;;;;;5110157;28;20446;-68
2021/08/14 00:05:15;;;;;;;23.02;6.15;;;;;;;;;;5108772;28;20509;-68
2021/08/14 00:07:41;;;;;;;28.20;6.55;;;;;;;;;;5110589;28;20035;-68
2021/08/14 00:10:07;;;;;;;28.17;7.70;;;;;;;;;;5110957;28;20027;-68
2021/08/14 00:12:33;;;;;;;26.80;6.35;;;;;;;;;;5114768;28;20026;-68
2021/08/14 00:14:59;;;;;;;25.50;6.32;;;;;;;;;;5097421;28;20047;-68
2021/08/14 00:17:25;;;;;;;22.58;6.70;;;;;;;;;;5113840;28;20027;-68
2021/08/14 00:19:51;;;;;;;22.42;6.78;;;;;;;;;;5096047;28;20019;-68
2021/08/14 00:22:17;;;;;;;34.42;8.27;;;;;;;;;;5114407;28;20031;-67
2021/08/14 00:24:43;;;;;;;28.55;7.70;;;;;;;;;;5114589;28;20034;-68
2021/08/14 00:27:09;;;;;;;25.42;6.80;;;;;;;;;;5113645;27;20012;-69
2021/08/14 00:29:36;;;;;;;27.70;7.22;;;;;;;;;;5114310;28;20038;-67
2021/08/14 00:32:02;;;;;;;27.08;8.15;;;;;;;;;;5095779;28;20024;-68
2021/08/14 00:34:28;;;;;;;26.08;6.20;;;;;;;;;;5113946;28;20126;-68
2021/08/14 00:36:54;;;;;;;25.52;7.25;;;;;;;;;;5112675;28;20053;-68
2021/08/14 00:39:20;;;;;;;25.75;7.25;;;;;;;;;;5114179;28;20031;-68
2021/08/14 00:41:46;;;;;;;23.67;6.78;;;;;;;;;;5113899;28;20019;-68
2021/08/14 00:44:12;;;;;;;28.92;7.53;;;;;;;;;;5094283;28;20028;-68
2021/08/14 00:46:40;;;;;;;26.13;7.53;;;;;;;;;;5104636;27;20035;-69
2021/08/14 00:49:06;;;;;;;35.92;7.72;;;;;;;;;;5114129;28;20058;-69
2021/08/14 00:51:32;;;;;;;24.10;5.93;;;;;;;;;;5113643;28;20027;-68
2021/08/14 00:53:58;;;;;;;29.75;7.22;;;;;;;;;;5113586;28;20028;-68
2021/08/14 00:56:25;;;;;;;19.08;6.40;;;;;;;;;;5112277;28;20066;-68
2021/08/14 00:58:55;;;;;;;27.02;6.95;;;;;;;;;;5113847;28;20020;-69
2021/08/14 01:01:22;;;;;;;23.38;6.72;;;;;;;;;;5112709;28;20024;-69
2021/08/14 01:03:48;;;;;;;29.95;7.63;;;;;;;;;;5110249;28;20509;-69
2021/08/14 01:06:17;;;;;;;26.38;6.20;;;;;;;;;;5112415;28;20038;-69
2021/08/14 01:08:44;;;;;;;28.17;6.47;;;;;;;;;;5095590;28;20608;-68
2021/08/14 01:11:11;;;;;;;33.03;7.03;;;;;;;;;;5113251;28;20504;-68
2021/08/14 01:13:37;;;;;;;31.83;7.72;;;;;;;;;;5106836;28;20457;-68
2021/08/14 01:16:05;;;;;;;31.90;7.63;;;;;;;;;;5088001;28;20072;-68
2021/08/14 01:18:31;;;;;;;26.55;6.63;;;;;;;;;;5108844;28;20098;-68
2021/08/14 01:20:57;;;;;;;28.27;7.85;;;;;;;;;;5113149;28;20288;-68
2021/08/14 01:23:23;;;;;;;35.67;8.98;;;;;;;;;;5095648;28;20024;-68
2021/08/14 01:26:01;;;;;;;35.00;7.45;;;;;;;;;;5109759;28;20060;-68
2021/08/14 01:28:27;;;;;;;38.67;8.43;;;;;;;;;;5113143;28;20034;-68
2021/08/14 01:30:53;;;;;;;38.70;9.50;;;;;;;;;;5113342;28;20054;-68
2021/08/14 01:33:19;;;;;;;30.73;8.75;;;;;;;;;;5094578;28;20101;-68
2021/08/14 01:35:46;;;;;;;42.83;9.88;;;;;;;;;;5091959;28;20046;-68
2021/08/14 01:38:13;;;;;;;35.40;9.25;;;;;;;;;;5092336;28;20034;-68
2021/08/14 01:40:39;;;;;;;39.28;9.05;;;;;;;;;;5112501;28;20110;-68
2021/08/14 01:43:05;;;;;;;45.42;10.48;;;;;;;;;;5112564;28;20503;-68
2021/08/14 01:45:31;;;;;;;33.45;9.60;;;;;;;;;;5091824;28;20038;-68
2021/08/14 01:47:57;;;;;;;38.88;9.70;;;;;;;;;;5113383;28;20065;-68
2021/08/14 01:50:23;;;;;;;52.22;10.30;;;;;;;;;;5114079;27;20028;-68
2021/08/14 01:52:52;;;;;;;39.15;9.95;;;;;;;;;;5110469;27;20028;-68
2021/08/14 01:55:18;;;;;;;44.70;10.07;;;;;;;;;;5107020;28;20115;-68
2021/08/14 01:57:44;;;;;;;35.42;9.30;;;;;;;;;;5112865;28;20027;-68
2021/08/14 02:00:11;;;;;;;38.20;9.95;;;;;;;;;;5112928;28;20016;-68
2021/08/14 02:02:37;;;;;;;41.75;9.40;;;;;;;;;;5111883;28;20084;-68
2021/08/14 02:05:03;;;;;;;33.40;10.00;;;;;;;;;;5108142;28;20019;-68
2021/08/14 02:07:29;;;;;;;40.70;10.27;;;;;;;;;;5111093;28;20039;-68
2021/08/14 02:09:56;;;;;;;40.97;11.40;;;;;;;;;;5092549;28;20027;-69
2021/08/14 02:12:22;;;;;;;28.17;9.77;;;;;;;;;;5111397;28;20038;-68
2021/08/14 02:14:48;;;;;;;32.70;10.20;;;;;;;;;;5111059;28;20024;-70
2021/08/14 02:17:14;;;;;;;38.38;9.18;;;;;;;;;;5110350;28;20050;-68
2021/08/14 02:19:40;;;;;;;39.33;10.15;;;;;;;;;;5092704;28;20622;-68
2021/08/14 02:22:06;;;;;;;44.92;13.48;;;;;;;;;;5111445;28;20102;-68
2021/08/14 02:24:34;;;;;;;45.80;12.57;;;;;;;;;;5112291;28;20024;-68
2021/08/14 02:27:02;;;;;;;42.05;11.55;;;;;;;;;;5110686;28;20031;-68
2021/08/14 02:29:28;;;;;;;43.60;11.05;;;;;;;;;;5111341;28;20028;-68
2021/08/14 02:31:54;;;;;;;46.25;11.82;;;;;;;;;;5092109;28;20595;-68
2021/08/14 02:34:20;;;;;;;51.08;12.60;;;;;;;;;;5108531;28;20704;-68
2021/08/14 02:36:46;;;;;;;42.05;10.90;;;;;;;;;;5110713;28;20150;-68
2021/08/14 02:39:12;;;;;;;42.47;11.43;;;;;;;;;;5111186;28;20018;-68
2021/08/14 02:41:38;;;;;;;30.40;10.95;;;;;;;;;;5111229;28;20027;-68
2021/08/14 02:44:04;;;;;;;45.15;11.43;;;;;;;;;;5111020;28;20026;-68
2021/08/14 02:46:30;;;;;;;41.92;12.43;;;;;;;;;;5100330;28;20028;-68
2021/08/14 02:48:56;;;;;;;42.90;11.48;;;;;;;;;;5108363;28;21388;-68
2021/08/14 02:51:23;;;;;;;47.35;13.75;;;;;;;;;;5109245;28;20493;-68
2021/08/14 02:53:49;;;;;;;48.25;13.25;;;;;;;;;;5105194;28;20170;-68
2021/08/14 02:56:15;;;;;;;42.88;13.77;;;;;;;;;;5090896;28;20108;-68
2021/08/14 02:58:41;;;;;;;45.20;15.13;;;;;;;;;;5084696;28;20396;-68
2021/08/14 03:01:07;;;;;;;48.45;12.48;;;;;;;;;;5109756;28;20023;-68
2021/08/14 03:03:33;;;;;;;51.90;14.88;;;;;;;;;;5108544;28;20055;-68
2021/08/14 03:05:59;;;;;;;45.47;13.52;;;;;;;;;;5112178;27;20019;-69
2021/08/14 03:08:25;;;;;;;54.13;12.90;;;;;;;;;;5110540;28;20024;-68
2021/08/14 03:10:51;;;;;;;49.03;13.63;;;;;;;;;;5091855;28;20019;-68
2021/08/14 03:13:17;;;;;;;42.40;13.13;;;;;;;;;;5109662;28;20027;-69
2021/08/14 03:15:43;;;;;;;42.55;14.38;;;;;;;;;;5109493;28;20047;-67
2021/08/14 03:18:09;;;;;;;51.95;14.23;;;;;;;;;;5111135;28;20497;-68
2021/08/14 03:20:36;;;;;;;44.00;13.55;;;;;;;;;;5111749;28;20022;-68
2021/08/14 03:23:02;;;;;;;54.80;14.10;;;;;;;;;;5111220;27;20027;-68
2021/08/14 03:25:28;;;;;;;49.10;14.38;;;;;;;;;;5109540;28;20027;-68
2021/08/14 03:27:54;;;;;;;35.03;12.52;;;;;;;;;;5111080;28;20420;-68
2021/08/14 03:30:20;;;;;;;40.22;12.70;;;;;;;;;;5108737;28;20031;-68
2021/08/14 03:32:47;;;;;;;47.28;12.25;;;;;;;;;;5088035;28;20128;-68
2021/08/14 03:35:13;;;;;;;44.10;13.75;;;;;;;;;;5107389;28;20034;-68
2021/08/14 03:37:40;;;;;;;49.17;14.35;;;;;;;;;;5108350;28;20020;-68
2021/08/14 03:40:06;;;;;;;43.72;13.07;;;;;;;;;;5107441;27;20042;-68
2021/08/14 03:42:32;;;;;;;43.40;12.88;;;;;;;;;;5108676;28;20149;-68
2021/08/14 03:44:59;;;;;;;43.67;13.40;;;;;;;;;;5109002;28;20032;-68
2021/08/14 03:47:25;;;;;;;48.80;14.77;;;;;;;;;;5104116;28;20058;-68
2021/08/14 03:49:51;;;;;;;53.67;14.35;;;;;;;;;;5109416;28;20092;-68
2021/08/14 03:52:17;;;;;;;45.40;13.05;;;;;;;;;;5108681;28;20035;-70
2021/08/14 03:54:43;;;;;;;43.90;12.85;;;;;;;;;;5103878;28;20028;-68
2021/08/14 03:57:09;;;;;;;40.00;13.40;;;;;;;;;;5105411;28;20105;-68
2021/08/14 03:59:35;;;;;;;42.55;14.40;;;;;;;;;;5106055;28;20027;-68
2021/08/14 04:02:01;;;;;;;35.22;12.60;;;;;;;;;;5105715;28;20020;-68
2021/08/14 04:04:27;;;;;;;45.33;14.50;;;;;;;;;;5107480;28;20348;-68
2021/08/14 04:06:54;;;;;;;44.28;16.08;;;;;;;;;;5105643;28;20565;-68
2021/08/14 04:09:20;;;;;;;52.58;15.88;;;;;;;;;;5107966;28;20046;-68
2021/08/14 04:11:46;;;;;;;44.67;15.43;;;;;;;;;;5107178;28;20039;-68
2021/08/14 04:14:12;;;;;;;37.50;14.95;;;;;;;;;;5108003;28;20077;-68
2021/08/14 04:16:38;;;;;;;43.60;15.57;;;;;;;;;;5109914;28;20056;-68
2021/08/14 04:19:04;;;;;;;41.90;15.20;;;;;;;;;;5091124;28;20066;-68
2021/08/14 04:21:30;;;;;;;40.28;14.95;;;;;;;;;;5090498;28;20040;-68
2021/08/14 04:23:56;;;;;;;46.22;16.15;;;;;;;;;;5107330;28;20496;-68
2021/08/14 04:26:22;;;;;;;41.85;16.25;;;;;;;;;;5106306;28;20110;-68
2021/08/14 04:28:48;;;;;;;53.17;16.20;;;;;;;;;;5107984;28;20140;-68
2021/08/14 04:31:14;;;;;;;48.42;16.17;;;;;;;;;;5088524;28;20156;-68
2021/08/14 04:33:40;;;;;;;45.58;18.10;;;;;;;;;;5107155;28;20051;-67
2021/08/14 04:36:06;;;;;;;46.08;14.85;;;;;;;;;;5106515;28;20046;-68
2021/08/14 04:38:32;;;;;;;48.97;16.25;;;;;;;;;;5107724;28;20073;-68
2021/08/14 04:40:58;;;;;;;47.50;16.23;;;;;;;;;;5105209;28;20012;-68
2021/08/14 04:43:24;;;;;;;50.22;15.60;;;;;;;;;;5088741;28;20023;-68
2021/08/14 04:45:50;;;;;;;42.05;15.35;;;;;;;;;;5107827;28;20027;-68
2021/08/14 04:48:16;;;;;;;44.95;15.75;;;;;;;;;;5108281;28;20084;-68
2021/08/14 04:50:42;;;;;;;40.35;16.00;;;;;;;;;;5108407;28;20030;-68
2021/08/14 04:53:10;;;;;;;47.95;15.98;;;;;;;;;;5090679;28;20059;-68
2021/08/14 04:55:36;;;;;;;47.00;17.00;;;;;;;;;;5106299;28;20114;-68
2021/08/14 04:58:02;;;;;;;49.70;15.52;;;;;;;;;;5091161;28;20058;-68
2021/08/14 05:00:28;;;;;;;47.47;15.68;;;;;;;;;;5109411;28;20043;-68
2021/08/14 05:02:54;;;;;;;51.60;16.83;;;;;;;;;;5092217;28;20030;-68
2021/08/14 05:05:20;;;;;;;41.35;16.55;;;;;;;;;;5107868;28;20053;-68
2021/08/14 05:07:46;;;;;;;44.42;16.45;;;;;;;;;;5111192;28;20024;-68
2021/08/14 05:10:14;;;;;;;42.67;14.90;;;;;;;;;;5112209;28;20027;-68
2021/08/14 05:12:40;;;;;;;50.90;18.05;;;;;;;;;;5112134;28;20610;-68
2021/08/14 05:15:07;;;;;;;46.75;16.20;;;;;;;;;;5088985;28;20076;-68
2021/08/14 05:17:33;;;;;;;50.30;17.88;;;;;;;;;;5110329;28;20031;-68
2021/08/14 05:19:59;;;;;;;53.40;20.02;;;;;;;;;;5112823;28;20028;-68
2021/08/14 05:22:25;;;;;;;56.30;19.95;;;;;;;;;;5116346;27;20397;-68
2021/08/14 05:24:51;;;;;;;66.65;18.70;;;;;;;;;;5094391;28;20389;-68
2021/08/14 05:27:17;;;;;;;55.65;19.20;;;;;;;;;;5112377;28;20032;-68
2021/08/14 05:29:43;;;;;;;51.33;18.77;;;;;;;;;;5112454;28;20023;-68
2021/08/14 05:32:09;;;;;;;56.67;17.80;;;;;;;;;;5101259;28;20034;-68
2021/08/14 05:34:35;;;;;;;53.15;18.00;;;;;;;;;;5106731;28;20185;-69
2021/08/14 05:37:01;;;;;;;62.03;18.50;;;;;;;;;;5111794;28;20027;-69
2021/08/14 05:39:27;;;;;;;50.55;18.58;;;;;;;;;;5111286;28;20144;-68
2021/08/14 05:41:53;;;;;;;57.47;18.70;;;;;;;;;;5112588;28;20027;-68
2021/08/14 05:44:20;;;;;;;50.90;19.55;;;;;;;;;;5111731;28;20110;-68
2021/08/14 05:46:46;;;;;;;54.70;19.85;;;;;;;;;;5099347;28;20035;-68
2021/08/14 05:49:12;;;;;;;57.22;19.25;;;;;;;;;;5104134;28;20016;-68
2021/08/14 05:51:38;;;;;;;66.43;19.52;;;;;;;;;;5112181;27;20098;-68
2021/08/14 05:54:04;;;;;;;55.25;18.95;;;;;;;;;;5093498;28;20065;-68
2021/08/14 05:56:30;;;;;;;67.03;19.58;;;;;;;;;;5111851;28;20031;-68
2021/08/14 05:58:56;;;;;;;56.42;19.15;;;;;;;;;;5111828;28;20017;-68
2021/08/14 06:01:22;;;;;;;55.67;19.10;;;;;;;;;;5093167;28;20051;-68
2021/08/14 06:03:48;;;;;;;49.40;17.48;;;;;;;;;;5111176;28;20061;-67
2021/08/14 06:06:14;;;;;;;52.05;21.02;;;;;;;;;;5110600;27;20027;-67
2021/08/14 06:08:40;;;;;;;53.45;20.25;;;;;;;;;;5109070;28;20065;-68
2021/08/14 06:11:06;;;;;;;55.33;19.90;;;;;;;;;;5108371;28;20023;-68
2021/08/14 06:13:32;;;;;;;49.53;19.27;;;;;;;;;;5099659;28;20561;-68
2021/08/14 06:15:58;;;;;;;52.60;19.63;;;;;;;;;;5111358;28;20045;-68
2021/08/14 06:18:25;;;;;;;65.25;20.70;;;;;;;;;;5112720;28;20515;-68
2021/08/14 06:20:51;;;;;;;59.95;22.77;;;;;;;;;;5111956;28;20028;-67
2021/08/14 06:23:17;;;;;;;65.13;24.65;;;;;;;;;;5111480;28;20031;-68
2021/08/14 06:25:43;;;;;;;64.53;24.25;;;;;;;;;;5109099;28;20497;-68
2021/08/14 06:28:09;;;;;;;49.97;20.08;;;;;;;;;;5111583;28;20023;-68
2021/08/14 06:30:35;;;;;;;72.90;23.77;;;;;;;;;;5110709;28;20161;-68
2021/08/14 06:33:01;;;;;;;58.85;21.90;;;;;;;;;;5106542;28;20127;-68
2021/08/14 06:35:27;;;;;;;54.25;22.13;;;;;;;;;;5090779;28;20031;-67
2021/08/14 06:37:53;;;;;;;70.85;24.98;;;;;;;;;;5111593;28;20027;-69
2021/08/14 06:40:19;;;;;;;58.58;22.52;;;;;;;;;;5090563;28;20035;-68
2021/08/14 06:42:45;;;;;;;63.70;23.17;;;;;;;;;;5110034;28;20508;-68
2021/08/14 06:45:12;;;;;;;50.38;19.77;;;;;;;;;;5109800;28;20038;-68
2021/08/14 06:47:38;;;;;;;55.58;21.08;;;;;;;;;;5119180;27;20046;-67
2021/08/14 06:50:05;;;;;;;51.97;19.80;;;;;;;;;;5107405;28;20038;-68
2021/08/14 06:52:31;;;;;;;52.65;20.67;;;;;;;;;;5108274;28;20019;-68
2021/08/14 06:54:57;;;;;;;63.60;21.52;;;;;;;;;;5109777;28;20024;-68
2021/08/14 06:57:23;;;;;;;45.47;20.00;;;;;;;;;;5110264;28;20370;-68
2021/08/14 06:59:49;;;;;;;47.17;19.52;;;;;;;;;;5111080;28;20023;-68
2021/08/14 07:02:18;;;;;;;55.05;19.85;;;;;;;;;;5110677;28;20085;-68
2021/08/14 07:04:44;;;;;;;50.30;19.98;;;;;;;;;;5111467;28;20023;-68
2021/08/14 07:07:10;;;;;;;63.30;20.98;;;;;;;;;;5109893;28;20031;-67
2021/08/14 07:09:37;;;;;;;54.47;18.25;;;;;;;;;;5103729;28;20036;-68
2021/08/14 07:12:03;;;;;;;45.78;18.92;;;;;;;;;;5092697;28;20077;-68
2021/08/14 07:14:29;;;;;;;47.80;19.45;;;;;;;;;;5099687;28;20024;-68
2021/08/14 07:16:55;;;;;;;49.38;20.75;;;;;;;;;;5110459;28;20023;-68
2021/08/14 07:19:21;;;;;;;55.08;17.40;;;;;;;;;;5110522;28;20016;-68
2021/08/14 07:21:47;;;;;;;54.30;17.90;;;;;;;;;;5109460;28;20027;-68
2021/08/14 07:24:14;;;;;;;51.97;19.00;;;;;;;;;;5103314;28;20122;-68
2021/08/14 07:26:40;;;;;;;55.55;19.95;;;;;;;;;;5107051;28;20038;-68
2021/08/14 07:29:06;;;;;;;46.47;17.52;;;;;;;;;;5083074;28;20027;-68
2021/08/14 07:31:32;;;;;;;41.97;15.73;;;;;;;;;;5105454;28;20027;-68
2021/08/14 07:33:58;;;;;;;41.22;16.88;;;;;;;;;;5088724;28;20048;-68
2021/08/14 07:36:24;;;;;;;40.15;15.07;;;;;;;;;;5107716;28;20051;-68
2021/08/14 07:38:50;;;;;;;48.55;17.27;;;;;;;;;;5111319;28;20111;-68
2021/08/14 07:41:16;;;;;;;37.67;13.65;;;;;;;;;;5091183;28;20020;-68
2021/08/14 07:43:42;;;;;;;49.33;16.52;;;;;;;;;;5109125;28;20028;-68
2021/08/14 07:46:12;;;;;;;42.55;15.10;;;;;;;;;;5084847;28;20027;-68
2021/08/14 07:48:38;;;;;;;39.95;13.65;;;;;;;;;;5109869;28;20016;-67
2021/08/14 07:51:04;;;;;;;40.55;12.82;;;;;;;;;;5108751;28;20016;-67
2021/08/14 07:53:31;;;;;;;45.05;14.77;;;;;;;;;;5096931;28;20028;-67
2021/08/14 07:55:57;;;;;;;39.03;14.93;;;;;;;;;;5108950;28;20037;-67
2021/08/14 07:58:23;;;;;;;43.30;13.65;;;;;;;;;;5110710;28;20023;-68
2021/08/14 08:00:49;;;;;;;47.95;15.57;;;;;;;;;;5110415;28;20028;-68
2021/08/14 08:03:15;;;;;;;43.80;13.48;;;;;;;;;;5089366;28;20024;-68
2021/08/14 08:05:42;;;;;;;52.50;14.95;;;;;;;;;;5109208;28;20024;-68
2021/08/14 08:08:08;;;;;;;35.53;12.23;;;;;;;;;;5110790;28;20027;-67
2021/08/14 08:10:34;;;;;;;34.80;11.75;;;;;;;;;;5108046;28;20027;-66
2021/08/14 08:13:01;;;;;;;39.70;12.65;;;;;;;;;;5105553;28;20031;-68
2021/08/14 08:15:27;;;;;;;38.88;11.93;;;;;;;;;;5089487;28;20028;-68
2021/08/14 08:17:53;;;;;;;45.63;13.23;;;;;;;;;;5092179;28;20097;-68
2021/08/14 08:20:20;;;;;;;34.20;11.57;;;;;;;;;;5110750;28;20012;-67
2021/08/14 08:22:46;;;;;;;36.08;11.27;;;;;;;;;;5108287;28;20084;-66
2021/08/14 08:25:13;;;;;;;35.03;12.32;;;;;;;;;;5097672;28;20019;-68
2021/08/14 08:27:40;;;;;;;39.03;11.25;;;;;;;;;;5109884;28;20035;-68
2021/08/14 08:30:07;;;;;;;38.42;12.13;;;;;;;;;;5111045;28;20016;-68
2021/08/14 08:32:33;;;;;;;41.20;11.68;;;;;;;;;;5107681;28;20034;-69
2021/08/14 08:34:59;;;;;;;38.90;12.43;;;;;;;;;;5112236;28;20039;-67
2021/08/14 08:37:25;;;;;;;39.28;12.70;;;;;;;;;;5112835;28;20035;-68
2021/08/14 08:39:51;;;;;;;49.10;13.27;;;;;;;;;;5113900;28;20053;-68
2021/08/14 08:42:17;;;;;;;36.75;10.90;;;;;;;;;;5093900;28;20039;-68
2021/08/14 08:44:43;;;;;;;29.20;10.52;;;;;;;;;;5112832;28;20031;-67
2021/08/14 08:47:10;;;;;;;32.95;10.35;;;;;;;;;;5119405;27;20023;-68
2021/08/14 08:49:40;;;;;;;36.67;10.52;;;;;;;;;;5113771;28;20040;-67
2021/08/14 08:52:06;;;;;;;35.35;9.35;;;;;;;;;;5113045;28;20496;-68
2021/08/14 08:54:32;;;;;;;30.13;10.88;;;;;;;;;;5108625;28;20031;-68
2021/08/14 08:56:58;;;;;;;34.35;10.48;;;;;;;;;;5111643;28;20020;-68
2021/08/14 08:59:24;;;;;;;30.98;10.18;;;;;;;;;;5114133;28;20015;-67
2021/08/14 09:01:50;;;;;;;36.28;10.77;;;;;;;;;;5094269;28;20026;-68
2021/08/14 09:04:22;;;;;;;31.15;10.18;;;;;;;;;;5105795;28;20032;-68
2021/08/14 09:06:48;;;;;;;35.33;8.85;;;;;;;;;;5111656;28;20505;-67
2021/08/14 09:09:15;;;;;;;30.42;9.55;;;;;;;;;;5090865;28;20420;-67
2021/08/14 09:11:48;;;;;;;22.42;7.22;;;;;;;;;;5110424;28;20026;-67
2021/08/14 09:14:14;;;;;;;29.50;6.57;;;;;;;;;;5107801;28;20042;-67
2021/08/14 09:16:40;;;;;;;22.20;7.18;;;;;;;;;;5110635;28;20028;-67
2021/08/14 09:19:06;;;;;;;24.85;7.35;;;;;;;;;;5113812;28;20040;-67
2021/08/14 09:21:36;;;;;;;27.00;6.85;;;;;;;;;;5113822;27;20107;-68
2021/08/14 09:24:06;;;;;;;23.67;6.70;;;;;;;;;;5113136;28;20543;-68
2021/08/14 09:26:55;;;;;;;21.17;6.97;;;;;;;;;;5092714;28;20030;-67
2021/08/14 09:29:34;;;;;;;18.70;6.75;;;;;;;;;;5100648;28;20047;-69
2021/08/14 09:32:01;;;;;;;24.45;6.65;;;;;;;;;;5113046;28;20016;-68
2021/08/14 09:34:27;;;;;;;23.67;7.32;;;;;;;;;;5111703;28;20687;-68
2021/08/14 09:37:04;;;;;;;21.80;6.57;;;;;;;;;;5111509;28;20020;-68
2021/08/14 09:39:31;;;;;;;26.45;6.03;;;;;;;;;;5109448;28;20020;-68
2021/08/14 09:42:01;;;;;;;26.35;8.48;;;;;;;;;;5111601;28;20440;-67
2021/08/14 09:44:27;;;;;;;27.88;7.10;;;;;;;;;;5112291;28;20027;-67
2021/08/14 09:46:54;;;;;;;17.88;6.75;;;;;;;;;;5095594;28;20514;-68
2021/08/14 09:49:20;;;;;;;22.17;7.13;;;;;;;;;;5110889;28;20019;-66
2021/08/14 09:51:46;;;;;;;18.35;5.95;;;;;;;;;;5108168;28;20035;-66
2021/08/14 09:54:12;;;;;;;22.00;6.32;;;;;;;;;;5103183;28;20028;-68
2021/08/14 09:56:38;;;;;;;16.85;5.32;;;;;;;;;;5109635;28;20028;-67
2021/08/14 09:59:05;;;;;;;16.00;5.47;;;;;;;;;;5101307;28;20020;-68
2021/08/14 10:01:32;;;;;;;25.17;6.72;;;;;;;;;;5104966;28;20039;-68
2021/08/14 10:03:59;;;;;;;21.23;6.03;;;;;;;;;;5112354;28;20072;-68
2021/08/14 10:06:25;;;;;;;18.40;6.22;;;;;;;;;;5111120;28;20024;-68
2021/08/14 10:08:52;;;;;;;17.27;5.32;;;;;;;;;;5093678;28;20072;-67
2021/08/14 10:11:18;;;;;;;17.05;6.22;;;;;;;;;;5113012;28;20057;-67
2021/08/14 10:13:45;;;;;;;22.17;6.75;;;;;;;;;;5109165;28;20103;-67
2021/08/14 10:16:11;;;;;;;22.08;6.43;;;;;;;;;;5111448;28;20051;-68
2021/08/14 10:18:41;;;;;;;21.50;6.25;;;;;;;;;;5112598;28;20038;-69
2021/08/14 10:21:07;;;;;;;21.52;5.63;;;;;;;;;;5112500;28;20024;-68
2021/08/14 10:23:33;;;;;;;18.02;6.28;;;;;;;;;;5111818;28;20028;-68
2021/08/14 10:26:01;;;;;;;20.35;5.38;;;;;;;;;;5110942;28;20489;-68
2021/08/14 10:28:44;;;;;;;23.63;6.38;;;;;;;;;;5111859;28;20050;-67
2021/08/14 10:31:10;;;;;;;21.27;4.88;;;;;;;;;;5093837;28;20020;-67
2021/08/14 10:33:38;;;;;;;13.70;5.10;;;;;;;;;;5092548;28;20066;-68
2021/08/14 10:36:16;;;;;;;22.05;5.55;;;;;;;;;;5109100;28;20114;-67
2021/08/14 10:38:47;;;;;;;14.23;5.63;;;;;;;;;;5104573;28;20027;-68
2021/08/14 10:41:13;;;;;;;16.30;5.18;;;;;;;;;;5111292;28;20043;-68
2021/08/14 10:43:51;;;;;;;16.50;5.47;;;;;;;;;;5110312;28;20051;-68
2021/08/14 10:46:37;;;;;;;23.05;5.53;;;;;;;;;;5112002;27;20024;-67
2021/08/14 10:49:04;;;;;;;15.43;6.38;;;;;;;;;;5089980;28;20104;-67
2021/08/14 10:51:48;;;;;;;14.70;5.32;;;;;;;;;;5107923;28;20024;-67
2021/08/14 10:54:34;;;;;;;15.82;4.63;;;;;;;;;;5103551;28;20162;-68
2021/08/14 10:57:01;;;;;;;23.35;5.57;;;;;;;;;;5053703;28;20044;-66
2021/08/14 10:59:37;;;;;;;17.40;5.50;;;;;;;;;;5107165;28;20039;-68
2021/08/14 11:02:03;;;;;;;18.20;5.93;;;;;;;;;;5106303;28;20012;-67
2021/08/14 11:04:34;;;;;;;18.42;5.50;;;;;;;;;;5088060;28;20104;-68
2021/08/14 11:07:21;;;;;;;21.75;7.28;;;;;;;;;;5106277;28;20496;-67
2021/08/14 11:09:53;;;;;;;22.98;5.70;;;;;;;;;;5087558;28;20039;-67
2021/08/14 11:12:52;;;;;;;22.42;6.53;;;;;;;;;;5107391;28;20489;-67
2021/08/14 11:15:20;;;;;;;21.35;5.47;;;;;;;;;;5049229;28;20039;-67
2021/08/14 11:17:46;;;;;;;20.85;5.68;;;;;;;;;;5105373;28;20047;-68
2021/08/14 11:20:21;;;;;;;14.63;5.43;;;;;;;;;;5104857;28;20397;-67
2021/08/14 11:22:48;;;;;;;15.02;5.20;;;;;;;;;;5110022;28;20019;-68
2021/08/14 11:25:29;;;;;;;16.20;4.97;;;;;;;;;;5108328;28;20062;-68
2021/08/14 11:28:16;;;;;;;14.95;4.97;;;;;;;;;;5107941;28;20064;-67
2021/08/14 11:30:57;;;;;;;20.65;5.90;;;;;;;;;;5107965;28;20020;-68
2021/08/14 11:33:27;;;;;;;17.15;5.22;;;;;;;;;;5110235;28;20047;-67
2021/08/14 11:36:02;;;;;;;17.38;5.25;;;;;;;;;;5107386;28;20532;-67
2021/08/14 11:38:35;;;;;;;14.10;4.80;;;;;;;;;;5105425;28;20113;-67
2021/08/14 11:41:02;;;;;;;13.25;4.07;;;;;;;;;;5108832;28;20050;-67
2021/08/14 11:43:39;;;;;;;17.13;4.70;;;;;;;;;;5108370;28;20034;-67
2021/08/14 11:46:06;;;;;;;13.98;4.15;;;;;;;;;;5106254;28;20050;-68
2021/08/14 11:48:39;;;;;;;14.23;4.47;;;;;;;;;;5110581;28;20089;-68
2021/08/14 11:51:14;;;;;;;15.93;4.75;;;;;;;;;;5109319;28;20031;-68
2021/08/14 11:53:41;;;;;;;16.23;4.55;;;;;;;;;;5109281;28;20019;-68
2021/08/14 11:56:07;;;;;;;14.45;3.70;;;;;;;;;;5105435;28;20123;-69
2021/08/14 11:58:34;;;;;;;9.57;3.60;;;;;;;;;;5109725;28;20024;-70
2021/08/14 12:01:00;;;;;;;13.05;4.10;;;;;;;;;;5109423;28;20020;-68
2021/08/14 12:03:26;;;;;;;10.40;4.55;;;;;;;;;;5105053;28;20103;-69
2021/08/14 12:05:52;;;;;;;14.02;4.30;;;;;;;;;;5107103;28;20026;-68
2021/08/14 12:08:35;;;;;;;12.20;3.90;;;;;;;;;;5110896;28;20035;-69
2021/08/14 12:11:03;;;;;;;16.10;4.68;;;;;;;;;;5110362;28;20023;-70
2021/08/14 12:13:29;;;;;;;12.07;4.50;;;;;;;;;;5110974;28;20039;-68
2021/08/14 12:16:14;;;;;;;16.00;4.88;;;;;;;;;;5111468;28;20024;-68
2021/08/14 12:18:41;;;;;;;16.73;4.70;;;;;;;;;;5113175;28;20027;-69
2021/08/14 12:21:08;;;;;;;15.80;4.28;;;;;;;;;;5113681;28;20042;-70
2021/08/14 12:23:35;;;;;;;12.70;4.63;;;;;;;;;;5114072;28;20012;-69
2021/08/14 12:26:02;;;;;;;14.88;4.30;;;;;;;;;;5110676;28;20054;-69
2021/08/14 12:28:36;;;;;;;13.43;4.38;;;;;;;;;;5094006;28;20032;-68
2021/08/14 12:31:13;;;;;;;10.80;3.95;;;;;;;;;;5113304;28;20031;-68
2021/08/14 12:33:45;;;;;;;14.35;4.97;;;;;;;;;;5109276;28;20043;-68
2021/08/14 12:36:11;;;;;;;;;;;;;;;;;;5110362;28;20536;-68
2021/08/14 12:38:47;;;;;;;16.13;5.15;;;;;;;;;;5113684;28;19915;-68
2021/08/14 12:41:14;;;;;;;11.48;4.40;;;;;;;;;;5114242;28;20022;-70
2021/08/14 12:43:47;;;;;;;12.70;3.83;;;;;;;;;;5112202;28;20015;-68
2021/08/14 12:46:31;;;;;;;14.43;4.55;;;;;;;;;;5118360;27;20405;-68
2021/08/14 12:49:17;;;;;;;13.38;4.35;;;;;;;;;;5096740;28;20088;-69
2021/08/14 12:51:43;;;;;;;13.95;3.92;;;;;;;;;;5109315;28;20027;-69
2021/08/14 12:54:12;;;;;;;11.52;3.53;;;;;;;;;;5089438;28;20033;-69
2021/08/14 12:56:39;;;;;;;10.05;3.25;;;;;;;;;;5108663;28;20153;-68
2021/08/14 12:59:05;;;;;;;9.50;3.30;;;;;;;;;;5108400;28;20099;-69
2021/08/14 13:01:31;;;;;;;10.57;3.50;;;;;;;;;;5108316;27;20246;-69
2021/08/14 13:03:57;;;;;;;15.05;4.30;;;;;;;;;;5112272;28;20027;-69
2021/08/14 13:06:23;;;;;;;8.50;3.20;;;;;;;;;;5109244;28;20081;-69
2021/08/14 13:08:49;;;;;;;11.13;3.90;;;;;;;;;;5111799;28;20023;-68
2021/08/14 13:11:15;;;;;;;13.00;2.97;;;;;;;;;;5090068;28;20028;-69
2021/08/14 13:13:42;;;;;;;12.10;3.70;;;;;;;;;;5093312;28;20027;-69
2021/08/14 13:16:07;;;;;;;11.57;3.65;;;;;;;;;;5086850;28;20023;-69
2021/08/14 13:18:34;;;;;;;9.75;4.15;;;;;;;;;;5111339;28;20077;-68
2021/08/14 13:21:00;;;;;;;9.35;3.15;;;;;;;;;;5093822;28;20016;-70
2021/08/14 13:23:26;;;;;;;7.32;2.50;;;;;;;;;;5112798;28;20451;-68
2021/08/14 13:25:55;;;;;;;6.70;2.28;;;;;;;;;;5110211;28;20040;-69
2021/08/14 13:28:21;;;;;;;12.15;2.65;;;;;;;;;;5113697;28;20030;-68
2021/08/14 13:30:50;;;;;;;7.45;2.17;;;;;;;;;;5108151;28;20020;-68
2021/08/14 13:33:16;;;;;;;5.20;1.60;;;;;;;;;;5101268;28;20202;-69
2021/08/14 13:35:42;;;;;;;9.05;2.45;;;;;;;;;;5090434;28;20027;-68
2021/08/14 13:38:08;;;;;;;9.80;2.70;;;;;;;;;;5112849;28;20020;-69
2021/08/14 13:40:34;;;;;;;6.82;1.63;;;;;;;;;;5112821;28;20015;-69
2021/08/14 13:43:00;;;;;;;8.05;2.00;;;;;;;;;;5112189;28;20489;-68
2021/08/14 13:45:26;;;;;;;10.25;2.20;;;;;;;;;;5090320;28;20311;-68
2021/08/14 13:47:52;;;;;;;5.22;2.08;;;;;;;;;;5085520;28;20027;-67
2021/08/14 13:50:20;;;;;;;7.22;2.22;;;;;;;;;;5109775;28;20040;-67
2021/08/14 13:52:46;;;;;;;4.93;2.00;;;;;;;;;;5110122;28;20504;-68
2021/08/14 13:55:13;;;;;;;5.85;2.22;;;;;;;;;;5099198;28;20493;-68
2021/08/14 13:57:39;;;;;;;7.65;2.83;;;;;;;;;;5110444;28;20038;-68
2021/08/14 14:00:06;;;;;;;5.97;2.17;;;;;;;;;;5112430;28;20012;-69
2021/08/14 14:02:32;;;;;;;7.93;2.47;;;;;;;;;;5111501;28;20020;-68
2021/08/14 14:04:58;;;;;;;12.18;3.15;;;;;;;;;;5110695;28;20027;-67
2021/08/14 14:07:24;;;;;;;10.18;2.80;;;;;;;;;;5109816;28;20258;-67
2021/08/14 14:09:50;;;;;;;9.27;2.95;;;;;;;;;;5110470;28;20053;-68
2021/08/14 14:12:16;;;;;;;6.63;2.33;;;;;;;;;;5102488;28;20513;-69
2021/08/14 14:14:42;;;;;;;9.48;3.10;;;;;;;;;;5096252;28;20027;-68
2021/08/14 14:17:08;;;;;;;7.68;2.50;;;;;;;;;;5108722;28;20016;-68
2021/08/14 14:19:34;;;;;;;8.32;2.38;;;;;;;;;;5093019;28;20015;-68
2021/08/14 14:22:00;;;;;;;12.82;2.92;;;;;;;;;;5120516;27;20030;-69
2021/08/14 14:24:27;;;;;;;7.60;2.60;;;;;;;;;;5115650;27;20034;-68
2021/08/14 14:26:53;;;;;;;7.55;3.03;;;;;;;;;;5108586;28;20084;-69